Time;durP1;ratioP1;P1;durP2;ratioP2;P2;SDS_P1;SDS_P2;PMS_P1;PMS_P2;Temp;Humidity;BMP_temperature;BMP_pressure;BME280_temperature;BME280_humidity;BME280_pressure;Samples;Min_cycle;Max_cycle;Signal;HPM_P1;HPM_P2
2021/12/13 00:00:12;;;;;;;6.20;4.88;;;12.60;80.10;;;;;;5014202;28;20505;-50
2021/12/13 00:03:04;;;;;;;8.07;5.72;;;12.60;80.10;;;;;;5028541;28;20053;-50
2021/12/13 00:05:44;;;;;;;5.43;4.93;;;12.60;80.10;;;;;;5036953;28;20045;-49
2021/12/13 00:08:17;;;;;;;7.75;5.90;;;12.60;80.00;;;;;;5039644;28;20103;-48
2021/12/13 00:10:56;;;;;;;8.63;6.00;;;12.60;80.00;;;;;;5022358;28;20038;-44
2021/12/13 00:13:29;;;;;;;5.60;4.95;;;12.60;80.00;;;;;;5037340;28;20047;-49
2021/12/13 00:16:00;;;;;;;6.82;5.45;;;12.50;79.90;;;;;;5041827;28;20033;-48
2021/12/13 00:18:35;;;;;;;5.72;5.22;;;12.50;79.90;;;;;;5051894;28;20041;-49
2021/12/13 00:21:13;;;;;;;6.38;5.25;;;12.50;79.90;;;;;;5033305;28;20042;-49
2021/12/13 00:23:49;;;;;;;8.95;5.85;;;12.50;79.70;;;;;;5029074;28;20045;-50
2021/12/13 00:26:27;;;;;;;6.78;5.38;;;12.50;79.40;;;;;;5038850;28;20132;-48
2021/12/13 00:28:54;;;;;;;7.00;5.68;;;12.50;79.30;;;;;;5010887;28;20058;-50
2021/12/13 00:31:26;;;;;;;7.10;5.72;;;12.40;79.30;;;;;;5038526;28;20029;-49
2021/12/13 00:34:18;;;;;;;7.50;5.88;;;12.40;79.40;;;;;;5042953;28;20098;-48
2021/12/13 00:36:52;;;;;;;6.88;5.85;;;12.40;79.40;;;;;;5050304;28;20053;-49
2021/12/13 00:39:25;;;;;;;6.97;5.57;;;12.40;79.50;;;;;;5032089;28;20583;-49
2021/12/13 00:41:54;;;;;;;7.38;5.45;;;12.30;79.60;;;;;;5038437;28;20181;-48
2021/12/13 00:44:29;;;;;;;6.32;5.05;;;12.30;79.60;;;;;;5051228;28;20045;-49
2021/12/13 00:47:00;;;;;;;6.65;5.90;;;12.30;79.70;;;;;;5041327;28;20048;-48
2021/12/13 00:49:29;;;;;;;6.05;5.45;;;12.30;79.80;;;;;;5038109;28;20051;-48
2021/12/13 00:51:57;;;;;;;5.70;4.90;;;12.30;79.80;;;;;;5041824;28;20045;-45
2021/12/13 00:54:37;;;;;;;7.82;5.32;;;12.30;79.80;;;;;;5051003;28;20045;-46
2021/12/13 00:57:31;;;;;;;8.27;5.45;;;12.30;79.70;;;;;;5035801;28;20038;-47
2021/12/13 01:00:07;;;;;;;6.22;4.50;;;12.30;79.70;;;;;;5018336;28;20061;-47
2021/12/13 01:02:48;;;;;;;5.10;4.57;;;12.30;79.70;;;;;;5028381;28;20045;-49
2021/12/13 01:05:51;;;;;;;5.68;5.00;;;12.30;79.80;;;;;;5030019;28;20103;-45
2021/12/13 01:08:21;;;;;;;7.57;4.93;;;12.30;79.70;;;;;;5029063;28;20112;-45
2021/12/13 01:10:54;;;;;;;9.25;5.45;;;12.30;79.70;;;;;;5029414;28;20033;-46
2021/12/13 01:13:30;;;;;;;6.10;4.15;;;12.30;79.60;;;;;;5030217;28;20049;-46
2021/12/13 01:16:33;;;;;;;6.47;4.88;;;12.30;79.70;;;;;;5036750;28;20032;-48
2021/12/13 01:22:34;;;;;;;6.38;5.15;;;12.40;79.70;;;;;;5031177;28;20045;-45
2021/12/13 01:25:18;;;;;;;5.30;4.80;;;12.40;79.70;;;;;;5012808;28;20050;-46
2021/12/13 01:27:53;;;;;;;5.85;5.05;;;12.40;79.70;;;;;;5037697;28;20396;-46
2021/12/13 01:30:27;;;;;;;6.57;4.43;;;12.40;79.60;;;;;;5042035;28;20041;-46
2021/12/13 01:32:56;;;;;;;5.60;4.90;;;12.40;79.60;;;;;;5049419;28;20041;-46
2021/12/13 01:35:27;;;;;;;6.65;4.95;;;12.40;79.60;;;;;;5031194;28;20503;-46
2021/12/13 01:37:54;;;;;;;6.72;5.13;;;12.40;79.40;;;;;;5037069;28;20034;-47
2021/12/13 01:40:30;;;;;;;5.07;4.57;;;12.40;79.40;;;;;;5022373;28;20033;-46
2021/12/13 01:43:20;;;;;;;5.97;4.75;;;12.40;79.40;;;;;;5029265;28;20037;-45
2021/12/13 01:45:50;;;;;;;7.35;5.30;;;12.40;79.30;;;;;;5027569;28;20064;-47
2021/12/13 01:48:22;;;;;;;5.50;4.72;;;12.40;79.30;;;;;;5039278;28;20424;-45
2021/12/13 01:50:53;;;;;;;5.20;4.70;;;12.40;79.30;;;;;;5043558;28;20037;-46
2021/12/13 01:53:42;;;;;;;5.95;4.88;;;12.40;79.30;;;;;;5049466;28;20044;-46
2021/12/13 01:59:06;;;;;;;;;;;12.50;79.10;;;;;;5029025;28;20065;-44
2021/12/13 02:01:33;;;;;;;5.60;4.25;;;12.50;79.20;;;;;;5030699;28;19924;-45
2021/12/13 02:04:06;;;;;;;6.03;4.90;;;12.50;78.90;;;;;;5036737;28;20098;-47
2021/12/13 02:06:36;;;;;;;5.55;4.28;;;12.50;79.10;;;;;;5028864;28;20045;-49
2021/12/13 02:09:14;;;;;;;5.95;4.47;;;12.50;79.10;;;;;;5028365;28;20844;-45
2021/12/13 02:11:44;;;;;;;5.95;4.45;;;12.50;79.10;;;;;;5027526;28;20045;-45
2021/12/13 02:14:16;;;;;;;6.05;4.50;;;12.50;79.10;;;;;;5031515;28;20041;-46
2021/12/13 02:17:09;;;;;;;5.65;5.03;;;12.50;79.10;;;;;;5039427;28;20041;-48
2021/12/13 02:19:41;;;;;;;4.38;3.63;;;12.50;79.10;;;;;;5009614;28;20045;-49
2021/12/13 02:22:31;;;;;;;7.07;4.82;;;12.50;79.00;;;;;;5020281;28;20486;-46
2021/12/13 02:25:22;;;;;;;5.03;4.38;;;12.50;78.80;;;;;;5039893;28;20048;-45
2021/12/13 02:28:21;;;;;;;5.65;4.22;;;12.50;78.80;;;;;;5009083;28;20100;-45
2021/12/13 02:31:13;;;;;;;4.95;4.18;;;12.50;78.80;;;;;;5033275;28;20064;-46
2021/12/13 02:33:47;;;;;;;6.00;4.57;;;12.50;78.90;;;;;;5029451;28;20086;-47
2021/12/13 02:36:32;;;;;;;5.57;3.67;;;12.50;78.90;;;;;;5037967;28;20037;-45
2021/12/13 02:39:04;;;;;;;4.65;3.90;;;12.50;78.80;;;;;;5048254;28;20033;-48
2021/12/13 02:41:32;;;;;;;6.72;4.32;;;12.50;78.80;;;;;;5028897;28;20444;-48
2021/12/13 02:44:05;;;;;;;4.38;3.97;;;12.40;78.70;;;;;;5028785;28;20463;-48
2021/12/13 02:46:34;;;;;;;5.63;4.40;;;12.40;78.80;;;;;;5028165;28;20045;-45
2021/12/13 02:49:05;;;;;;;5.75;4.50;;;12.50;78.80;;;;;;5028030;28;20095;-49
2021/12/13 02:51:47;;;;;;;5.35;4.20;;;12.40;78.70;;;;;;5028727;28;20102;-48
2021/12/13 02:54:22;;;;;;;4.70;3.78;;;12.50;78.80;;;;;;5020322;28;20049;-46
2021/12/13 02:56:54;;;;;;;4.65;4.18;;;12.50;78.70;;;;;;5024716;28;20049;-49
2021/12/13 02:59:23;;;;;;;5.00;3.97;;;12.50;78.70;;;;;;5040323;28;20501;-46
2021/12/13 03:01:59;;;;;;;4.65;4.07;;;12.40;78.60;;;;;;5036571;28;20546;-46
2021/12/13 03:04:28;;;;;;;4.30;3.63;;;12.40;78.70;;;;;;5005660;28;20072;-49
2021/12/13 03:07:19;;;;;;;7.40;4.78;;;12.40;78.70;;;;;;5046919;28;20474;-49
2021/12/13 03:09:51;;;;;;;4.38;3.72;;;12.40;78.70;;;;;;5021575;28;20046;-50
2021/12/13 03:12:19;;;;;;;;;;;12.40;78.60;;;;;;5041392;28;20041;-50
2021/12/13 03:14:52;;;;;;;5.13;3.50;;;12.50;78.70;;;;;;5041444;28;20002;-48
2021/12/13 03:17:41;;;;;;;5.28;4.10;;;12.50;78.50;;;;;;5042408;28;20038;-50
2021/12/13 03:20:26;;;;;;;5.05;4.10;;;12.50;78.40;;;;;;5041402;28;20037;-49
2021/12/13 03:23:25;;;;;;;3.65;3.10;;;12.50;78.50;;;;;;5044339;28;20041;-50
2021/12/13 03:26:23;;;;;;;4.88;4.20;;;12.40;78.40;;;;;;5017377;28;20107;-50
2021/12/13 03:29:03;;;;;;;5.60;4.22;;;12.50;78.50;;;;;;5033228;28;20037;-50
2021/12/13 03:31:43;;;;;;;5.15;4.25;;;12.40;78.40;;;;;;5031543;28;20034;-46
2021/12/13 03:34:24;;;;;;;4.97;4.10;;;12.40;78.40;;;;;;5048002;28;20059;-50
2021/12/13 03:37:03;;;;;;;5.68;4.68;;;12.40;78.40;;;;;;5040985;28;20038;-47
2021/12/13 03:39:41;;;;;;;4.47;4.07;;;12.40;78.40;;;;;;5018554;28;20045;-50
2021/12/13 03:42:16;;;;;;;5.15;4.45;;;12.40;78.40;;;;;;5041326;28;20055;-49
2021/12/13 03:44:47;;;;;;;5.75;4.15;;;12.40;78.50;;;;;;5032477;28;20111;-49
2021/12/13 03:47:20;;;;;;;5.57;4.97;;;12.40;78.50;;;;;;5038866;28;20050;-49
2021/12/13 03:49:53;;;;;;;4.88;4.20;;;12.40;78.60;;;;;;5033108;28;20124;-49
2021/12/13 03:52:24;;;;;;;5.75;4.75;;;12.40;78.50;;;;;;5041591;28;20056;-47
2021/12/13 03:54:53;;;;;;;5.53;3.72;;;12.40;78.40;;;;;;5050704;28;20045;-49
2021/12/13 03:57:21;;;;;;;5.40;4.30;;;12.40;78.50;;;;;;5036749;28;20509;-48
2021/12/13 03:59:49;;;;;;;6.35;4.85;;;12.40;78.50;;;;;;5040266;28;20531;-48
2021/12/13 04:02:22;;;;;;;4.70;3.95;;;12.40;78.40;;;;;;5048488;28;20130;-48
2021/12/13 04:04:58;;;;;;;6.03;4.70;;;12.40;78.40;;;;;;5040155;28;20046;-49
2021/12/13 04:07:26;;;;;;;7.03;4.60;;;12.40;78.40;;;;;;5034897;28;20053;-48
2021/12/13 04:09:57;;;;;;;8.30;4.55;;;12.40;78.40;;;;;;5030179;28;20045;-48
2021/12/13 04:12:32;;;;;;;5.95;4.60;;;12.40;78.40;;;;;;5048971;28;20095;-50
2021/12/13 04:15:27;;;;;;;4.47;3.60;;;12.40;78.30;;;;;;5045508;28;20502;-49
2021/12/13 04:18:12;;;;;;;5.78;4.28;;;12.40;78.30;;;;;;5022124;28;20492;-49
2021/12/13 04:20:41;;;;;;;8.40;4.60;;;12.40;78.30;;;;;;5035627;28;20041;-47
2021/12/13 04:23:17;;;;;;;6.43;4.47;;;12.40;78.20;;;;;;5046027;28;20099;-47
2021/12/13 04:25:50;;;;;;;5.13;4.15;;;12.40;78.20;;;;;;5025056;28;20056;-45
2021/12/13 04:28:25;;;;;;;5.95;4.78;;;12.40;78.20;;;;;;5021891;28;20057;-50
2021/12/13 04:30:58;;;;;;;5.40;4.00;;;12.40;78.30;;;;;;5049529;28;20494;-49
2021/12/13 04:33:50;;;;;;;4.40;3.95;;;12.40;78.20;;;;;;5035972;28;20038;-49
2021/12/13 04:36:45;;;;;;;5.70;3.87;;;12.40;78.10;;;;;;5039530;28;20106;-47
2021/12/13 04:39:24;;;;;;;8.35;5.20;;;12.40;78.10;;;;;;5044431;28;20091;-48
2021/12/13 04:41:54;;;;;;;4.72;4.00;;;12.40;78.00;;;;;;5030286;28;20523;-46
2021/12/13 04:44:32;;;;;;;5.03;3.92;;;12.40;78.00;;;;;;5031557;28;20464;-45
2021/12/13 04:47:13;;;;;;;4.88;3.80;;;12.40;78.00;;;;;;5038043;28;20052;-46
2021/12/13 04:49:49;;;;;;;4.78;3.83;;;12.40;78.00;;;;;;5009626;28;20119;-48
2021/12/13 04:52:19;;;;;;;5.57;3.65;;;12.40;78.00;;;;;;5027001;28;20115;-49
2021/12/13 04:54:50;;;;;;;4.30;3.80;;;12.40;78.00;;;;;;5040702;28;20559;-46
2021/12/13 04:57:18;;;;;;;6.68;4.43;;;12.40;78.00;;;;;;5047269;28;20075;-49
2021/12/13 04:59:52;;;;;;;4.25;3.70;;;12.40;77.90;;;;;;5044763;28;20083;-45
2021/12/13 05:02:21;;;;;;;4.47;3.50;;;12.40;77.80;;;;;;5029297;28;20501;-46
2021/12/13 05:04:54;;;;;;;5.35;4.07;;;12.40;77.90;;;;;;5039339;28;20041;-50
2021/12/13 05:07:24;;;;;;;4.43;3.17;;;12.40;77.80;;;;;;5040040;28;20570;-48
2021/12/13 05:09:52;;;;;;;4.95;4.00;;;12.40;77.80;;;;;;5037996;23;20037;-79
2021/12/13 05:12:22;;;;;;;4.38;3.97;;;12.40;77.80;;;;;;5033528;28;20106;-79
2021/12/13 05:14:54;;;;;;;5.13;4.07;;;12.40;77.80;;;;;;5004335;28;20136;-77
2021/12/13 05:17:43;;;;;;;3.97;3.50;;;12.50;77.80;;;;;;4991481;28;20042;-77
2021/12/13 05:20:16;;;;;;;4.72;3.90;;;12.40;77.60;;;;;;4993820;28;20052;-75
2021/12/13 05:22:48;;;;;;;4.53;3.72;;;12.40;77.70;;;;;;5008613;28;20042;-76
2021/12/13 05:25:31;;;;;;;5.40;3.80;;;12.40;77.60;;;;;;4995748;28;20049;-77
2021/12/13 05:28:07;;;;;;;4.28;3.83;;;12.40;77.50;;;;;;5019745;23;20141;-50
2021/12/13 05:30:40;;;;;;;5.13;3.88;;;12.40;77.50;;;;;;4995310;28;20096;-48
2021/12/13 05:33:12;;;;;;;4.60;3.70;;;12.40;77.60;;;;;;5004368;28;20099;-48
2021/12/13 05:35:46;;;;;;;4.18;3.50;;;12.40;77.50;;;;;;4988796;28;20046;-50
2021/12/13 05:38:27;;;;;;;4.85;3.80;;;12.40;77.50;;;;;;4989179;28;20100;-49
2021/12/13 05:40:55;;;;;;;4.78;3.65;;;12.40;77.40;;;;;;4987941;28;20154;-52
2021/12/13 05:43:30;;;;;;;5.80;3.65;;;12.30;77.50;;;;;;4999396;28;20108;-50
2021/12/13 05:46:06;;;;;;;4.38;3.78;;;12.40;77.40;;;;;;4979322;28;20104;-49
2021/12/13 05:48:33;;;;;;;4.78;3.63;;;12.40;77.30;;;;;;4986820;28;20505;-48
2021/12/13 05:51:06;;;;;;;4.63;3.53;;;12.40;77.50;;;;;;4990728;28;20054;-51
2021/12/13 05:53:44;;;;;;;3.70;3.35;;;12.30;77.30;;;;;;4982763;28;20038;-49
2021/12/13 05:56:17;;;;;;;4.03;3.17;;;12.30;77.30;;;;;;4983563;28;20124;-49
2021/12/13 05:58:53;;;;;;;4.20;3.55;;;12.30;77.90;;;;;;4986440;28;20464;-52
2021/12/13 06:01:23;;;;;;;4.07;3.50;;;12.30;77.20;;;;;;4986582;28;20073;-51
2021/12/13 06:04:05;;;;;;;4.57;3.45;;;12.30;77.30;;;;;;4981126;28;20042;-48
2021/12/13 06:06:44;;;;;;;3.45;3.03;;;12.30;77.30;;;;;;4983238;28;20560;-49
2021/12/13 06:09:51;;;;;;;3.92;3.63;;;12.30;77.30;;;;;;4985638;28;20406;-49
2021/12/13 06:12:36;;;;;;;4.65;3.78;;;12.40;77.20;;;;;;4995399;28;20074;-52
2021/12/13 06:15:11;;;;;;;6.97;6.17;;;12.30;77.20;;;;;;5002820;28;20548;-53
2021/12/13 06:17:50;;;;;;;8.55;5.97;;;12.30;77.30;;;;;;4978825;28;20034;-50
2021/12/13 06:20:28;;;;;;;5.45;3.95;;;12.30;77.30;;;;;;5001626;28;20096;-52
2021/12/13 06:23:37;;;;;;;3.35;3.03;;;12.40;77.30;;;;;;5009971;28;20129;-51
2021/12/13 06:26:11;;;;;;;3.42;3.13;;;12.30;77.20;;;;;;4953018;28;20059;-49
2021/12/13 06:28:44;;;;;;;3.38;2.83;;;12.40;77.30;;;;;;4995735;28;20050;-48
2021/12/13 06:31:15;;;;;;;3.38;3.08;;;12.30;77.30;;;;;;4992669;28;20149;-49
2021/12/13 06:33:45;;;;;;;3.53;3.03;;;12.30;77.30;;;;;;4988565;28;20042;-49
2021/12/13 06:36:12;;;;;;;5.15;3.38;;;12.30;77.30;;;;;;4978201;28;20506;-49
2021/12/13 06:38:46;;;;;;;3.58;3.20;;;12.30;77.30;;;;;;5000436;28;20607;-51
2021/12/13 06:41:28;;;;;;;5.53;3.35;;;12.30;77.30;;;;;;4998693;28;20050;-48
2021/12/13 06:43:59;;;;;;;5.85;3.25;;;12.30;77.30;;;;;;4985621;28;20089;-53
2021/12/13 06:46:26;;;;;;;5.47;3.42;;;12.30;77.30;;;;;;4989898;28;20058;-51
2021/12/13 06:49:38;;;;;;;4.18;3.30;;;12.30;77.30;;;;;;5002681;28;20042;-52
2021/12/13 06:52:08;;;;;;;3.38;3.08;;;12.30;77.00;;;;;;4998813;28;20100;-48
2021/12/13 06:54:42;;;;;;;3.60;3.17;;;12.40;77.30;;;;;;4987123;28;20487;-52
2021/12/13 06:57:10;;;;;;;3.50;3.00;;;12.40;77.30;;;;;;4994778;28;20082;-50
2021/12/13 07:00:00;;;;;;;2.65;2.45;;;12.30;77.20;;;;;;4986763;28;20069;-52
2021/12/13 07:02:57;;;;;;;2.63;2.20;;;12.40;77.10;;;;;;4985906;28;20057;-49
2021/12/13 07:05:34;;;;;;;5.63;2.65;;;12.30;77.10;;;;;;5002850;28;20466;-50
2021/12/13 07:08:02;;;;;;;4.00;2.65;;;12.30;77.10;;;;;;5005100;28;20076;-50
2021/12/13 07:10:46;;;;;;;3.40;2.25;;;12.40;77.20;;;;;;4992152;28;20054;-53
2021/12/13 07:13:56;;;;;;;4.50;3.20;;;12.40;77.10;;;;;;4970942;28;20049;-47
2021/12/13 07:16:29;;;;;;;4.50;3.03;;;12.40;77.00;;;;;;4989909;28;20058;-52
2021/12/13 07:19:22;;;;;;;3.58;2.38;;;12.30;77.10;;;;;;5012515;28;20046;-48
2021/12/13 07:21:59;;;;;;;2.35;2.13;;;12.40;77.20;;;;;;4955930;28;20046;-48
2021/12/13 07:24:42;;;;;;;3.58;2.35;;;12.40;77.00;;;;;;5009053;28;20058;-51
2021/12/13 07:27:21;;;;;;;5.05;2.40;;;12.30;77.60;;;;;;5012996;28;20050;-51
2021/12/13 07:30:11;;;;;;;3.20;2.33;;;12.30;77.10;;;;;;5005237;28;20101;-51
2021/12/13 07:32:49;;;;;;;2.60;2.40;;;12.30;77.10;;;;;;4985674;28;20085;-52
2021/12/13 07:35:40;;;;;;;3.92;2.40;;;12.30;77.10;;;;;;5003595;28;20501;-50
2021/12/13 07:38:16;;;;;;;4.03;2.72;;;12.30;77.10;;;;;;5011698;28;20092;-51
2021/12/13 07:40:45;;;;;;;3.05;2.15;;;12.30;77.20;;;;;;4995547;28;20038;-47
2021/12/13 07:43:21;;;;;;;3.13;2.33;;;12.30;77.20;;;;;;4991534;28;20047;-52
2021/12/13 07:45:54;;;;;;;2.70;2.25;;;12.30;77.30;;;;;;4984055;28;20097;-51
2021/12/13 07:48:49;;;;;;;2.83;2.35;;;12.30;77.30;;;;;;4981949;28;20042;-52
2021/12/13 07:51:27;;;;;;;3.25;2.40;;;12.30;77.30;;;;;;4991468;28;20078;-50
2021/12/13 07:54:06;;;;;;;3.90;2.45;;;12.30;77.30;;;;;;5012321;28;20034;-51
2021/12/13 07:56:39;;;;;;;4.88;2.75;;;12.30;77.30;;;;;;4996188;28;20092;-52
2021/12/13 07:59:18;;;;;;;5.28;2.88;;;12.30;77.30;;;;;;5007367;28;20050;-48
2021/12/13 08:02:07;;;;;;;3.75;3.10;;;12.30;77.20;;;;;;4977336;28;20034;-52
2021/12/13 08:04:42;;;;;;;4.28;2.70;;;12.40;77.30;;;;;;4991869;28;20121;-48
2021/12/13 08:07:16;;;;;;;3.25;2.47;;;12.30;77.30;;;;;;5003506;28;20054;-51
2021/12/13 08:10:08;;;;;;;5.63;2.97;;;12.30;77.40;;;;;;4992881;28;20042;-48
2021/12/13 08:12:38;;;;;;;3.83;2.55;;;12.40;78.00;;;;;;4987154;28;20054;-51
2021/12/13 08:15:11;;;;;;;3.10;2.47;;;12.40;77.50;;;;;;4993801;28;20046;-49
2021/12/13 08:17:46;;;;;;;3.97;2.72;;;12.40;77.40;;;;;;4995618;28;20045;-48
2021/12/13 08:20:20;;;;;;;3.72;2.80;;;12.40;77.40;;;;;;5002264;28;20089;-49
2021/12/13 08:22:50;;;;;;;2.80;2.47;;;12.40;77.30;;;;;;4991788;28;20125;-52
2021/12/13 08:25:28;;;;;;;3.78;2.55;;;12.40;77.40;;;;;;5007161;28;20100;-52
2021/12/13 08:27:57;;;;;;;2.67;2.47;;;12.40;77.40;;;;;;4978522;28;20042;-49
2021/12/13 08:30:28;;;;;;;3.60;2.25;;;12.40;77.40;;;;;;4997134;28;20076;-48
2021/12/13 08:33:08;;;;;;;2.92;2.63;;;12.40;77.30;;;;;;4993706;28;20121;-49
2021/12/13 08:35:56;;;;;;;2.97;2.58;;;12.40;77.30;;;;;;4995971;28;20498;-50
2021/12/13 08:38:32;;;;;;;2.60;2.20;;;12.40;77.30;;;;;;4995508;28;20054;-50
2021/12/13 08:41:06;;;;;;;2.95;2.63;;;12.40;77.30;;;;;;5004691;28;20038;-50
2021/12/13 08:43:50;;;;;;;2.40;2.20;;;12.40;77.30;;;;;;4990558;28;20445;-48
2021/12/13 08:46:29;;;;;;;2.92;2.30;;;12.50;77.40;;;;;;4989218;28;20481;-49
2021/12/13 08:48:57;;;;;;;2.53;2.25;;;12.40;77.40;;;;;;4988814;28;20045;-51
2021/12/13 08:51:28;;;;;;;2.42;2.22;;;12.50;77.40;;;;;;4985539;28;20753;-50
2021/12/13 08:54:07;;;;;;;2.40;2.20;;;12.50;77.30;;;;;;4989237;28;20070;-51
2021/12/13 08:56:44;;;;;;;2.90;2.42;;;12.50;77.20;;;;;;4985672;28;20498;-52
2021/12/13 08:59:26;;;;;;;2.55;2.35;;;12.50;77.10;;;;;;4980295;28;20035;-48
2021/12/13 09:02:03;;;;;;;4.68;2.22;;;12.50;77.00;;;;;;4988734;28;20050;-52
2021/12/13 09:04:38;;;;;;;2.92;2.00;;;12.50;77.10;;;;;;4988954;28;20125;-52
2021/12/13 09:07:09;;;;;;;2.55;2.35;;;12.60;77.20;;;;;;4987450;28;20038;-52
2021/12/13 09:09:42;;;;;;;3.28;2.63;;;12.50;77.10;;;;;;4988038;28;20042;-49
2021/12/13 09:12:11;;;;;;;2.53;2.33;;;12.60;77.00;;;;;;4984700;28;20035;-51
2021/12/13 09:14:51;;;;;;;2.50;2.30;;;12.60;77.10;;;;;;4990270;28;20084;-48
2021/12/13 09:17:23;;;;;;;4.15;2.28;;;12.60;76.80;;;;;;5006774;28;20041;-51
2021/12/13 09:20:18;;;;;;;2.72;2.00;;;12.60;76.90;;;;;;5002354;28;20782;-51
2021/12/13 09:22:46;;;;;;;2.13;1.95;;;12.70;76.80;;;;;;4978713;28;20101;-48
2021/12/13 09:25:13;;;;;;;2.53;2.20;;;12.70;77.00;;;;;;4985441;28;20097;-49
2021/12/13 09:28:18;;;;;;;2.40;2.20;;;12.70;76.90;;;;;;5001764;28;20046;-47
2021/12/13 09:31:13;;;;;;;2.53;2.15;;;12.70;76.50;;;;;;4983124;28;20540;-48
2021/12/13 09:33:42;;;;;;;2.33;1.98;;;12.80;76.60;;;;;;4984854;28;20471;-48
2021/12/13 09:36:13;;;;;;;3.42;2.10;;;12.80;76.90;;;;;;4978678;28;20043;-52
2021/12/13 09:38:52;;;;;;;2.30;2.10;;;12.80;76.90;;;;;;4987281;28;20440;-47
2021/12/13 09:41:27;;;;;;;2.42;2.00;;;12.90;76.90;;;;;;4984258;28;20046;-49
2021/12/13 09:44:13;;;;;;;2.20;2.00;;;12.90;76.70;;;;;;4990333;28;20053;-52
2021/12/13 09:46:46;;;;;;;2.65;2.40;;;12.90;76.80;;;;;;5000063;28;20038;-52
2021/12/13 09:49:14;;;;;;;4.63;2.75;;;13.00;76.60;;;;;;4997064;28;20046;-52
2021/12/13 09:52:05;;;;;;;2.90;2.60;;;13.10;77.40;;;;;;4986741;28;20048;-48
2021/12/13 09:54:40;;;;;;;3.47;2.72;;;13.10;76.00;;;;;;4986427;28;20382;-50
2021/12/13 09:57:16;;;;;;;3.05;2.75;;;13.20;76.30;;;;;;4975076;28;20039;-52
2021/12/13 10:00:10;;;;;;;2.50;2.30;;;13.20;76.10;;;;;;4995786;28;20112;-50
2021/12/13 10:02:41;;;;;;;2.33;2.13;;;13.30;75.70;;;;;;4978194;28;20050;-52
2021/12/13 10:05:11;;;;;;;2.45;2.20;;;13.30;75.60;;;;;;4998511;28;20053;-53
2021/12/13 10:07:42;;;;;;;2.35;1.85;;;13.30;75.60;;;;;;4988682;28;20046;-52
2021/12/13 10:10:19;;;;;;;2.55;1.83;;;13.30;75.50;;;;;;4982947;28;20112;-52
2021/12/13 10:12:55;;;;;;;2.15;1.95;;;13.40;75.20;;;;;;4984364;28;20066;-48
2021/12/13 10:15:47;;;;;;;1.95;1.75;;;13.40;75.20;;;;;;4989441;28;20046;-48
2021/12/13 10:18:19;;;;;;;2.55;2.00;;;13.50;74.70;;;;;;4977291;28;20047;-50
2021/12/13 10:21:06;;;;;;;2.58;1.75;;;13.50;74.80;;;;;;4986924;28;20042;-48
2021/12/13 10:23:38;;;;;;;2.45;1.98;;;13.50;74.30;;;;;;5000637;28;20543;-51
2021/12/13 10:26:26;;;;;;;2.40;2.20;;;13.50;74.40;;;;;;5008971;28;20046;-48
2021/12/13 10:29:00;;;;;;;1.83;1.70;;;13.50;74.30;;;;;;4992194;28;20046;-50
2021/12/13 10:31:35;;;;;;;2.65;1.65;;;13.60;74.10;;;;;;4989113;28;20097;-52
2021/12/13 10:34:06;;;;;;;1.92;1.63;;;13.60;73.90;;;;;;4992835;28;20048;-52
2021/12/13 10:36:35;;;;;;;1.77;1.60;;;13.50;74.00;;;;;;4988755;28;20042;-48
2021/12/13 10:39:17;;;;;;;1.40;1.30;;;13.50;73.90;;;;;;4986084;28;20046;-48
2021/12/13 10:42:05;;;;;;;1.73;1.40;;;13.50;73.60;;;;;;4989246;28;20034;-52
2021/12/13 10:44:32;;;;;;;1.50;1.40;;;13.50;73.60;;;;;;4986510;28;20050;-52
2021/12/13 10:47:16;;;;;;;1.83;1.58;;;13.50;73.70;;;;;;4984125;28;20093;-52
2021/12/13 10:49:45;;;;;;;2.15;1.33;;;13.50;73.30;;;;;;4971443;28;20049;-48
2021/12/13 10:52:37;;;;;;;1.50;1.40;;;13.50;73.50;;;;;;4991786;28;20047;-49
2021/12/13 10:55:16;;;;;;;1.27;1.17;;;13.50;73.10;;;;;;4972045;28;20218;-50
2021/12/13 10:57:48;;;;;;;1.30;1.17;;;13.50;73.60;;;;;;4971163;28;20065;-49
2021/12/13 11:00:25;;;;;;;1.20;1.10;;;13.50;73.80;;;;;;4985755;28;20050;-50
2021/12/13 11:03:05;;;;;;;1.42;1.30;;;13.50;73.70;;;;;;4997232;28;20313;-52
2021/12/13 11:05:32;;;;;;;1.10;0.98;;;13.50;73.30;;;;;;5007663;28;20037;-48
2021/12/13 11:08:01;;;;;;;1.50;1.10;;;13.60;73.60;;;;;;4993046;28;20046;-52
2021/12/13 11:10:38;;;;;;;1.00;1.00;;;13.60;73.30;;;;;;4970018;28;20043;-51
2021/12/13 11:13:24;;;;;;;0.95;0.93;;;13.60;73.10;;;;;;5010372;28;20520;-48
2021/12/13 11:15:56;;;;;;;2.55;1.38;;;13.60;73.20;;;;;;4995021;28;20073;-49
2021/12/13 11:18:28;;;;;;;1.80;0.70;;;13.60;73.10;;;;;;4987356;28;20046;-48
2021/12/13 11:21:06;;;;;;;2.40;0.90;;;13.60;73.00;;;;;;4992191;28;20046;-48
2021/12/13 11:23:33;;;;;;;1.13;0.90;;;13.70;72.80;;;;;;5009588;28;20428;-52
2021/12/13 11:26:05;;;;;;;0.88;0.88;;;13.70;72.80;;;;;;5011712;28;20073;-49
2021/12/13 11:28:33;;;;;;;1.67;0.88;;;13.70;72.60;;;;;;4993358;28;20045;-48
2021/12/13 11:31:28;;;;;;;0.50;0.50;;;13.70;72.60;;;;;;4992228;28;20391;-52
2021/12/13 11:34:01;;;;;;;2.67;0.80;;;13.70;72.30;;;;;;4952204;28;20061;-51
2021/12/13 11:36:56;;;;;;;1.52;0.90;;;13.70;72.20;;;;;;5030998;22;20103;-45
2021/12/13 11:39:45;;;;;;;1.48;0.80;;;13.70;72.10;;;;;;5040515;28;20452;-49
2021/12/13 11:42:32;;;;;;;0.60;0.60;;;13.70;71.90;;;;;;5025047;28;20042;-46
2021/12/13 11:45:24;;;;;;;1.23;0.90;;;13.70;71.60;;;;;;5021921;28;20038;-45
2021/12/13 11:48:27;;;;;;;3.30;1.00;;;13.70;72.30;;;;;;4988700;28;20053;-44
2021/12/13 11:51:11;;;;;;;0.50;0.47;;;13.80;71.60;;;;;;5024169;28;20401;-49
2021/12/13 11:54:16;;;;;;;0.43;0.40;;;13.70;71.50;;;;;;5015897;28;20112;-44
2021/12/13 11:56:55;;;;;;;2.72;0.60;;;13.80;71.10;;;;;;4987961;28;20047;-45
2021/12/13 11:59:51;;;;;;;1.58;0.82;;;13.70;71.30;;;;;;5019566;28;20049;-47
2021/12/13 12:02:58;;;;;;;1.90;1.33;;;13.70;70.90;;;;;;5012688;28;20046;-44
2021/12/13 12:05:59;;;;;;;1.42;1.10;;;13.70;70.90;;;;;;5006807;28;20046;-43
2021/12/13 12:09:11;;;;;;;1.85;0.70;;;13.70;70.60;;;;;;5004690;28;20050;-44
2021/12/13 12:12:11;;;;;;;1.88;0.70;;;13.70;70.50;;;;;;5004315;28;20127;-45
2021/12/13 12:14:38;;;;;;;0.73;0.73;;;13.70;70.70;;;;;;5010193;28;20667;-44
2021/12/13 12:17:06;;;;;;;0.63;0.52;;;13.70;71.40;;;;;;5016121;28;20042;-44
2021/12/13 12:19:36;;;;;;;0.80;0.60;;;13.70;71.50;;;;;;5025686;28;20049;-48
2021/12/13 12:22:13;;;;;;;0.80;0.80;;;13.70;71.70;;;;;;5022892;28;20049;-45
2021/12/13 12:24:41;;;;;;;0.57;0.52;;;13.70;71.10;;;;;;5015679;28;20042;-47
2021/12/13 12:27:13;;;;;;;0.50;0.50;;;13.70;71.50;;;;;;4987498;28;20049;-46
2021/12/13 12:29:47;;;;;;;0.55;0.55;;;13.70;71.20;;;;;;5007072;28;20042;-48
2021/12/13 12:32:34;;;;;;;0.60;0.55;;;13.70;71.40;;;;;;5002573;28;20046;-45
2021/12/13 12:35:02;;;;;;;0.60;0.60;;;13.70;71.00;;;;;;5006529;28;20581;-48
2021/12/13 12:37:48;;;;;;;1.42;0.60;;;13.70;71.50;;;;;;5012554;28;20049;-48
2021/12/13 12:40:28;;;;;;;0.60;0.60;;;13.70;71.60;;;;;;5001689;28;20034;-45
2021/12/13 12:42:59;;;;;;;0.73;0.68;;;13.70;71.30;;;;;;5011587;28;20034;-47
2021/12/13 12:45:28;;;;;;;1.15;0.90;;;13.70;71.70;;;;;;5008226;28;20039;-46
2021/12/13 12:48:07;;;;;;;1.27;1.02;;;13.70;71.80;;;;;;4982891;28;20038;-44
2021/12/13 12:50:37;;;;;;;1.02;0.90;;;13.70;71.80;;;;;;5011648;28;20053;-44
2021/12/13 12:53:14;;;;;;;1.35;0.57;;;13.70;71.80;;;;;;5023274;28;20049;-46
2021/12/13 12:55:55;;;;;;;0.95;0.85;;;13.70;71.60;;;;;;5000895;28;20069;-44
2021/12/13 12:58:26;;;;;;;0.60;0.60;;;13.80;71.20;;;;;;4999897;28;20043;-47
2021/12/13 13:00:55;;;;;;;1.92;1.00;;;13.80;71.70;;;;;;5006571;28;20038;-45
2021/12/13 13:03:28;;;;;;;0.82;0.68;;;13.70;71.60;;;;;;5006747;28;20065;-45
2021/12/13 13:06:12;;;;;;;1.27;1.00;;;13.80;71.40;;;;;;5001427;28;20119;-49
2021/12/13 13:08:41;;;;;;;1.02;0.95;;;13.80;70.80;;;;;;5003774;28;20058;-45
2021/12/13 13:14:09;;;;;;;0.80;0.70;;;13.80;71.20;;;;;;5018644;28;20037;-45
2021/12/13 13:16:41;;;;;;;2.10;0.65;;;13.80;71.80;;;;;;5017582;28;20048;-46
2021/12/13 13:19:22;;;;;;;0.83;0.80;;;13.80;71.40;;;;;;5017720;28;20050;-48
2021/12/13 13:21:49;;;;;;;1.05;0.95;;;13.80;71.20;;;;;;5024672;28;20076;-44
2021/12/13 13:24:16;;;;;;;2.22;0.70;;;13.80;71.20;;;;;;5013815;28;20045;-45
2021/12/13 13:26:45;;;;;;;1.27;0.85;;;13.80;71.30;;;;;;5020770;28;20104;-48
2021/12/13 13:29:15;;;;;;;0.95;0.70;;;13.80;71.40;;;;;;5012735;28;20084;-45
2021/12/13 13:31:54;;;;;;;1.25;0.95;;;13.80;71.50;;;;;;5022220;28;20049;-46
2021/12/13 13:34:27;;;;;;;1.20;1.00;;;13.80;71.30;;;;;;5003869;28;20060;-46
2021/12/13 13:37:22;;;;;;;0.90;0.80;;;13.80;71.40;;;;;;5011406;28;20038;-45
2021/12/13 13:39:54;;;;;;;;;;;13.80;70.70;;;;;;5005233;28;20598;-48
2021/12/13 13:42:28;;;;;;;1.07;0.97;;;13.80;71.20;;;;;;5015097;28;19927;-48
2021/12/13 13:45:21;;;;;;;3.08;1.55;;;13.80;70.90;;;;;;5015528;28;20334;-48
2021/12/13 13:47:57;;;;;;;1.60;0.95;;;13.80;70.40;;;;;;5006312;28;20058;-44
2021/12/13 13:50:32;;;;;;;1.17;0.90;;;13.80;70.80;;;;;;5009034;28;20052;-44